createdAt,value
2023-04-28T00:00:15.856Z,1.10
2023-04-28T00:02:44.482Z,0.83
2023-04-28T00:05:13.643Z,1.10
2023-04-28T00:07:42.185Z,0.97
2023-04-28T00:10:12.613Z,1.03
2023-04-28T00:12:41.269Z,1.20
2023-04-28T00:15:10.326Z,1.03
2023-04-28T00:17:39.074Z,1.10
2023-04-28T00:20:08.281Z,1.10
2023-04-28T00:22:36.738Z,1.00
2023-04-28T00:25:05.436Z,1.00
2023-04-28T00:27:36.050Z,1.20
2023-04-28T00:30:04.872Z,1.10
2023-04-28T00:32:33.538Z,1.07
2023-04-28T00:35:02.089Z,1.20
2023-04-28T00:37:30.589Z,1.20
2023-04-28T00:39:59.201Z,1.20
2023-04-28T00:42:27.834Z,1.40
2023-04-28T00:44:57.741Z,1.20
2023-04-28T00:47:26.493Z,1.30
2023-04-28T00:49:55.193Z,1.10
2023-04-28T00:52:23.630Z,1.00
2023-04-28T00:54:52.414Z,1.20
2023-04-28T00:57:21.300Z,1.00
2023-04-28T00:59:49.766Z,1.10
2023-04-28T01:02:20.228Z,1.07
2023-04-28T01:04:48.960Z,1.03
2023-04-28T01:07:17.606Z,1.13
2023-04-28T01:09:48.018Z,0.87
2023-04-28T01:12:16.676Z,1.17
2023-04-28T01:14:45.313Z,0.83
2023-04-28T01:17:14.295Z,0.90
2023-04-28T01:19:44.278Z,0.87
2023-04-28T01:22:15.573Z,0.93
2023-04-28T01:24:45.531Z,1.20
2023-04-28T01:27:14.000Z,0.90
2023-04-28T01:29:42.638Z,1.17
2023-04-28T01:32:11.768Z,1.00
2023-04-28T01:34:40.222Z,1.00
2023-04-28T01:37:08.798Z,1.30
2023-04-28T01:39:37.350Z,0.70
2023-04-28T01:42:07.321Z,0.83
2023-04-28T01:44:35.992Z,1.00
2023-04-28T01:47:04.579Z,0.83
2023-04-28T01:49:35.541Z,0.97
2023-04-28T01:52:04.177Z,1.20
2023-04-28T01:54:32.813Z,0.97
2023-04-28T01:57:02.462Z,1.33
2023-04-28T01:59:32.581Z,1.20
2023-04-28T02:02:01.279Z,0.93
2023-04-28T02:04:29.829Z,1.10
2023-04-28T02:06:58.898Z,1.00
2023-04-28T02:09:27.484Z,1.00
2023-04-28T02:11:55.942Z,0.97
2023-04-28T02:14:24.567Z,1.27
2023-04-28T02:16:54.424Z,1.17
2023-04-28T02:19:22.903Z,1.20
2023-04-28T02:21:51.791Z,1.30
2023-04-28T02:24:20.369Z,1.10
2023-04-28T02:26:49.130Z,1.00
2023-04-28T02:29:17.779Z,1.13
2023-04-28T02:31:46.448Z,1.40
2023-04-28T02:34:16.790Z,1.40
2023-04-28T02:36:45.474Z,1.40
2023-04-28T02:39:14.075Z,1.27
2023-04-28T02:41:42.547Z,1.43
2023-04-28T02:44:11.106Z,1.33
2023-04-28T02:46:39.779Z,2.10
2023-04-28T02:49:08.259Z,1.73
2023-04-28T02:51:38.283Z,1.50
2023-04-28T02:54:06.898Z,1.30
2023-04-28T02:56:35.532Z,1.40
2023-04-28T02:59:04.138Z,1.40
2023-04-28T03:01:32.796Z,1.53
2023-04-28T03:04:01.755Z,1.60
2023-04-28T03:06:31.875Z,1.80
2023-04-28T03:09:01.834Z,1.77
2023-04-28T03:11:30.290Z,1.70
2023-04-28T03:13:58.844Z,1.90
2023-04-28T03:16:27.597Z,2.03
2023-04-28T03:18:56.131Z,1.70
2023-04-28T03:21:26.778Z,1.77
2023-04-28T03:23:55.429Z,1.60
2023-04-28T03:26:25.271Z,1.50
2023-04-28T03:28:54.716Z,1.57
2023-04-28T03:31:24.210Z,1.90
2023-04-28T03:33:52.759Z,1.77
2023-04-28T03:36:21.388Z,1.73
2023-04-28T03:38:50.030Z,1.40
2023-04-28T03:41:20.081Z,1.70
2023-04-28T03:43:50.038Z,1.60
2023-04-28T03:46:18.756Z,1.70
2023-04-28T03:48:47.265Z,1.67
2023-04-28T03:51:15.814Z,1.50
2023-04-28T03:53:44.691Z,1.50
2023-04-28T03:56:13.391Z,1.37
2023-04-28T03:58:41.919Z,1.70
2023-04-28T04:01:11.906Z,1.40
2023-04-28T04:03:41.251Z,1.70
2023-04-28T04:06:10.404Z,1.30
2023-04-28T04:08:39.268Z,1.30
2023-04-28T04:11:08.163Z,1.40
2023-04-28T04:13:36.743Z,1.60
2023-04-28T04:16:05.351Z,1.30
2023-04-28T04:18:35.441Z,1.20
2023-04-28T04:21:04.096Z,1.50
2023-04-28T04:23:32.586Z,1.20
2023-04-28T04:26:01.232Z,1.10
2023-04-28T04:28:30.064Z,1.40
2023-04-28T04:30:58.646Z,1.50
2023-04-28T04:33:27.125Z,1.20
2023-04-28T04:35:57.423Z,1.20
2023-04-28T04:38:25.865Z,1.40
2023-04-28T04:40:54.320Z,1.40
2023-04-28T04:43:23.062Z,1.13
2023-04-28T04:45:51.605Z,1.40
2023-04-28T04:48:20.076Z,1.20
2023-04-28T04:50:49.457Z,1.27
2023-04-28T04:53:19.291Z,1.23
2023-04-28T04:55:47.760Z,1.40
2023-04-28T04:58:16.445Z,1.30
2023-04-28T05:00:45.032Z,1.10
2023-04-28T05:03:14.540Z,1.30
2023-04-28T05:05:46.183Z,1.37
2023-04-28T05:08:15.107Z,1.30
2023-04-28T05:10:45.081Z,1.30
2023-04-28T05:13:13.656Z,1.20
2023-04-28T05:15:42.106Z,1.50
2023-04-28T05:18:11.517Z,1.20
2023-04-28T05:20:40.177Z,1.37
2023-04-28T05:23:08.684Z,1.53
2023-04-28T05:25:37.240Z,1.10
2023-04-28T05:28:08.989Z,1.10
2023-04-28T05:30:37.581Z,1.10
2023-04-28T05:33:06.209Z,1.17
2023-04-28T05:35:34.764Z,1.20
2023-04-28T05:38:03.595Z,1.00
2023-04-28T05:40:32.042Z,1.20
2023-04-28T05:43:00.668Z,0.93
2023-04-28T05:45:30.676Z,1.00
2023-04-28T05:47:59.172Z,0.73
2023-04-28T05:50:27.798Z,1.00
2023-04-28T05:52:57.326Z,1.03
2023-04-28T05:55:25.893Z,0.87
2023-04-28T05:57:57.045Z,0.80
2023-04-28T06:00:25.707Z,0.80
2023-04-28T06:02:55.786Z,1.20
2023-04-28T06:05:25.091Z,0.77
2023-04-28T06:07:55.145Z,0.83
2023-04-28T06:10:24.043Z,1.00
2023-04-28T06:12:52.595Z,0.67
2023-04-28T06:15:21.246Z,0.50
2023-04-28T06:17:49.737Z,0.60
2023-04-28T06:20:20.769Z,0.80
2023-04-28T06:22:49.333Z,0.50
2023-04-28T06:25:17.845Z,0.57
2023-04-28T06:27:46.583Z,0.37
2023-04-28T06:30:19.620Z,0.33
2023-04-28T06:32:48.346Z,0.50
2023-04-28T06:35:19.108Z,0.40
2023-04-28T06:37:48.967Z,0.53
2023-04-28T06:40:17.490Z,0.43
2023-04-28T06:42:46.015Z,0.57
2023-04-28T06:45:14.608Z,0.40
2023-04-28T06:47:43.318Z,0.40
2023-04-28T06:50:12.594Z,0.70
2023-04-28T06:52:41.134Z,0.30
2023-04-28T07:08:17.719Z,0.40
2023-04-28T07:10:46.192Z,0.50
2023-04-28T07:13:14.640Z,0.40
2023-04-28T07:15:43.330Z,0.20
2023-04-28T07:18:11.810Z,0.33
2023-04-28T07:20:40.320Z,0.30
2023-04-28T07:23:08.908Z,0.30
2023-04-28T07:25:40.129Z,0.33
2023-04-28T07:28:09.361Z,0.50
2023-04-28T07:30:38.156Z,0.40
2023-04-28T07:33:06.677Z,0.37
2023-04-28T07:35:35.477Z,0.30
2023-04-28T07:38:04.419Z,0.33
2023-04-28T07:40:32.891Z,0.47
2023-04-28T07:43:03.861Z,0.30
2023-04-28T07:45:32.539Z,0.43
2023-04-28T07:48:01.264Z,0.40
2023-04-28T07:50:29.915Z,0.20
2023-04-28T07:52:58.829Z,0.37
2023-04-28T07:55:27.327Z,0.40
2023-04-28T07:57:56.160Z,0.30
2023-04-28T08:00:26.351Z,0.40
2023-04-28T08:02:54.968Z,0.30
2023-04-28T08:05:23.763Z,0.20
2023-04-28T08:07:52.551Z,0.30
2023-04-28T08:10:23.373Z,0.20
2023-04-28T08:12:51.946Z,0.40
2023-04-28T08:15:20.537Z,0.13
2023-04-28T08:17:50.455Z,0.40
2023-04-28T08:20:23.142Z,0.40
2023-04-28T08:22:53.429Z,0.40
2023-04-28T08:25:24.202Z,0.37
2023-04-28T08:27:52.652Z,0.20
2023-04-28T08:30:21.263Z,0.30
2023-04-28T08:32:51.491Z,0.30
2023-04-28T08:35:20.048Z,0.20
2023-04-28T08:37:49.669Z,0.20
2023-04-28T08:40:18.257Z,0.20
2023-04-28T08:42:47.286Z,0.20
2023-04-28T08:45:16.668Z,0.10
2023-04-28T08:47:47.781Z,0.20
2023-04-28T08:50:17.855Z,0.27
2023-04-28T08:52:46.548Z,0.20
2023-04-28T08:55:15.925Z,0.13
2023-04-28T08:57:45.574Z,0.10
2023-04-28T09:00:14.699Z,0.20
2023-04-28T09:02:43.417Z,0.27
2023-04-28T09:05:12.455Z,0.20
2023-04-28T09:07:42.982Z,0.20
2023-04-28T09:10:18.413Z,0.20
2023-04-28T09:12:47.487Z,0.30
2023-04-28T09:15:27.561Z,0.40
2023-04-28T09:17:56.158Z,0.10
2023-04-28T09:20:25.011Z,0.10
2023-04-28T09:22:57.000Z,0.20
2023-04-28T09:25:26.993Z,0.20
2023-04-28T09:27:57.680Z,0.37
2023-04-28T09:30:41.046Z,0.20
2023-04-28T09:33:11.457Z,0.10
2023-04-28T09:35:43.607Z,0.23
2023-04-28T09:38:15.002Z,0.20
2023-04-28T09:40:53.410Z,0.30
2023-04-28T09:43:31.675Z,0.30
2023-04-28T09:46:00.699Z,0.20
2023-04-28T09:48:29.932Z,0.20
2023-04-28T09:50:59.471Z,0.20
2023-04-28T09:53:29.650Z,0.30
2023-04-28T09:55:59.309Z,0.10
2023-04-28T09:58:28.917Z,0.10
2023-04-28T10:00:58.416Z,0.20
2023-04-28T10:03:29.694Z,0.10
2023-04-28T10:05:58.968Z,0.10
2023-04-28T10:08:29.615Z,0.30
2023-04-28T10:10:58.671Z,0.17
2023-04-28T10:13:27.812Z,0.30
2023-04-28T10:15:58.682Z,0.10
2023-04-28T10:18:27.472Z,0.30
2023-04-28T10:20:59.593Z,0.10
2023-04-28T10:23:48.704Z,0.00
2023-04-28T10:26:20.017Z,0.10
2023-04-28T10:28:48.754Z,0.17
2023-04-28T10:31:18.315Z,0.20
2023-04-28T10:33:47.123Z,0.20
2023-04-28T10:36:36.326Z,0.20
2023-04-28T10:39:12.285Z,0.20
2023-04-28T10:41:42.370Z,0.17
2023-04-28T10:44:29.678Z,0.20
2023-04-28T10:47:05.072Z,0.20
2023-04-28T10:49:48.422Z,0.20
2023-04-28T10:52:37.503Z,0.13
2023-04-28T10:55:27.004Z,0.00
2023-04-28T10:58:10.318Z,0.20
2023-04-28T11:00:41.263Z,0.10
2023-04-28T11:03:10.068Z,0.20
2023-04-28T11:05:38.709Z,0.03
2023-04-28T11:08:32.891Z,0.30
2023-04-28T11:11:14.037Z,0.10
2023-04-28T11:13:42.768Z,0.20
2023-04-28T11:16:12.692Z,0.20
2023-04-28T11:18:52.731Z,0.17
2023-04-28T11:21:23.425Z,0.10
2023-04-28T11:23:52.140Z,0.40
2023-04-28T11:26:21.207Z,0.20
2023-04-28T11:28:50.604Z,0.10
2023-04-28T11:31:22.433Z,0.30
2023-04-28T11:33:56.819Z,0.30
2023-04-28T11:36:26.542Z,0.20
2023-04-28T11:38:55.221Z,0.10
2023-04-28T11:41:23.737Z,0.20
2023-04-28T11:43:52.901Z,0.20
2023-04-28T11:46:23.743Z,0.10
2023-04-28T11:49:02.036Z,0.13
2023-04-28T11:51:34.147Z,0.20
2023-04-28T11:54:03.664Z,0.40
2023-04-28T11:56:32.211Z,0.20
2023-04-28T11:59:05.597Z,0.20
2023-04-28T12:01:37.430Z,0.20
2023-04-28T12:04:06.154Z,0.30
2023-04-28T12:06:34.923Z,0.30
2023-04-28T12:09:06.041Z,0.30
2023-04-28T12:11:34.629Z,0.40
2023-04-28T12:14:07.130Z,0.13
2023-04-28T12:16:43.372Z,0.10
2023-04-28T12:19:12.696Z,0.20
2023-04-28T12:21:41.607Z,0.30
2023-04-28T12:24:22.692Z,0.20
2023-04-28T12:26:51.301Z,0.10
2023-04-28T12:29:49.947Z,0.27
2023-04-28T12:32:20.548Z,0.30
2023-04-28T12:34:50.894Z,0.30
2023-04-28T12:37:19.805Z,0.10
2023-04-28T12:39:48.391Z,0.30
2023-04-28T12:42:16.959Z,0.10
2023-04-28T12:44:45.470Z,0.20
2023-04-28T12:47:14.252Z,0.10
2023-04-28T12:49:44.336Z,0.30
2023-04-28T12:52:12.975Z,0.20
2023-04-28T12:54:47.209Z,0.27
2023-04-28T12:57:15.768Z,0.20
2023-04-28T12:59:44.561Z,0.30
2023-04-28T13:02:14.867Z,0.30
2023-04-28T13:04:46.262Z,0.20
2023-04-28T13:07:15.124Z,0.20
2023-04-28T13:09:44.495Z,0.20
2023-04-28T13:12:13.843Z,0.20
2023-04-28T13:14:42.470Z,0.20
2023-04-28T13:17:12.650Z,0.20
2023-04-28T13:19:41.097Z,0.30
2023-04-28T13:22:11.396Z,0.27
2023-04-28T13:24:39.909Z,0.20
2023-04-28T13:27:09.763Z,0.20
2023-04-28T13:29:38.932Z,0.23
2023-04-28T13:32:07.851Z,0.20
2023-04-28T13:34:38.096Z,0.20
2023-04-28T13:37:07.032Z,0.10
2023-04-28T13:39:37.017Z,0.20
2023-04-28T13:42:06.030Z,0.10
2023-04-28T13:44:35.048Z,0.23
2023-04-28T13:47:05.282Z,0.20
2023-04-28T13:49:33.748Z,0.10
2023-04-28T13:52:03.640Z,0.20
2023-04-28T13:54:32.380Z,0.20
2023-04-28T13:57:02.993Z,0.20
2023-04-28T13:59:31.642Z,0.30
2023-04-28T14:02:00.216Z,0.10
2023-04-28T14:04:28.809Z,0.20
2023-04-28T14:06:57.645Z,0.20
2023-04-28T14:09:26.382Z,0.20
2023-04-28T14:11:56.685Z,0.20
2023-04-28T14:14:26.778Z,0.10
2023-04-28T14:16:55.480Z,0.13
2023-04-28T14:19:24.439Z,0.30
2023-04-28T14:21:52.996Z,0.10
2023-04-28T14:24:21.797Z,0.30
2023-04-28T14:26:50.955Z,0.10
2023-04-28T14:29:19.525Z,0.13
2023-04-28T14:31:49.434Z,0.13
2023-04-28T14:34:17.895Z,0.10
2023-04-28T14:36:47.949Z,0.17
2023-04-28T14:39:16.687Z,0.30
2023-04-28T14:41:45.149Z,0.20
2023-04-28T14:44:13.725Z,0.20
2023-04-28T14:46:42.377Z,0.30
2023-04-28T14:49:14.969Z,2.23
2023-04-28T14:51:43.693Z,0.10
2023-04-28T14:54:12.163Z,0.10
2023-04-28T14:56:40.632Z,0.20
2023-04-28T14:59:10.085Z,0.10
2023-04-28T15:01:38.637Z,0.40
2023-04-28T15:04:07.509Z,0.20
2023-04-28T15:06:38.106Z,0.20
2023-04-28T15:09:06.588Z,0.17
2023-04-28T15:11:35.054Z,0.20
2023-04-28T15:14:03.741Z,0.20
2023-04-28T15:16:32.342Z,0.23
2023-04-28T15:19:00.985Z,0.23
2023-04-28T15:21:29.737Z,0.37
2023-04-28T15:23:59.749Z,0.20
2023-04-28T15:26:29.973Z,0.30
2023-04-28T15:28:59.359Z,0.10
2023-04-28T15:31:28.313Z,0.27
2023-04-28T15:33:57.653Z,0.20
2023-04-28T15:36:26.965Z,0.20
2023-04-28T15:38:56.196Z,0.20
2023-04-28T15:41:26.078Z,0.20
2023-04-28T15:43:56.097Z,0.20
2023-04-28T15:46:24.852Z,0.30
2023-04-28T15:48:55.063Z,0.20
2023-04-28T15:51:23.954Z,0.20
2023-04-28T15:53:55.351Z,0.20
2023-04-28T15:56:24.132Z,0.30
2023-04-28T15:58:53.994Z,0.20
2023-04-28T16:01:23.431Z,0.30
2023-04-28T16:03:52.394Z,0.10
2023-04-28T16:06:21.071Z,0.30
2023-04-28T16:08:49.702Z,0.20
2023-04-28T16:11:20.454Z,0.20
2023-04-28T16:13:49.975Z,0.10
2023-04-28T16:16:20.115Z,0.20
2023-04-28T16:18:49.125Z,0.13
2023-04-28T16:21:17.978Z,0.30
2023-04-28T16:23:46.630Z,0.20
2023-04-28T16:26:15.127Z,0.23
2023-04-28T16:28:43.609Z,0.20
2023-04-28T16:31:12.411Z,0.30
2023-04-28T16:33:42.650Z,0.00
2023-04-28T16:36:11.530Z,0.20
2023-04-28T16:38:40.188Z,0.20
2023-04-28T16:41:08.644Z,0.20
2023-04-28T16:43:38.259Z,0.27
2023-04-28T16:46:08.228Z,0.30
2023-04-28T16:48:36.784Z,0.40
2023-04-28T16:51:08.404Z,0.50
2023-04-28T16:53:37.855Z,0.50
2023-04-28T16:56:08.292Z,0.30
2023-04-28T16:58:38.364Z,0.33
2023-04-28T17:01:07.122Z,0.53
2023-04-28T17:03:41.475Z,0.23
2023-04-28T17:06:12.263Z,0.40
2023-04-28T17:08:41.056Z,0.13
2023-04-28T17:11:09.752Z,0.27
2023-04-28T17:13:38.485Z,0.17
2023-04-28T17:16:07.144Z,0.40
2023-04-28T17:18:36.831Z,0.50
2023-04-28T17:21:05.555Z,0.33
2023-04-28T17:23:35.638Z,0.40
2023-04-28T17:26:05.121Z,0.47
2023-04-28T17:28:33.798Z,0.40
2023-04-28T17:31:03.802Z,0.30
2023-04-28T17:33:32.483Z,0.50
2023-04-28T17:36:01.805Z,0.40
2023-04-28T17:38:30.270Z,0.30
2023-04-28T17:41:00.185Z,0.40
2023-04-28T17:43:32.125Z,0.20
2023-04-28T17:46:00.709Z,0.33
2023-04-28T17:48:29.296Z,0.40
2023-04-28T17:50:57.893Z,0.40
2023-04-28T17:53:26.362Z,0.50
2023-04-28T17:55:54.945Z,0.30
2023-04-28T17:58:25.027Z,0.30
2023-04-28T18:01:01.111Z,0.50
2023-04-28T18:03:29.912Z,0.40
2023-04-28T18:05:58.486Z,0.33
2023-04-28T18:08:27.384Z,0.43
2023-04-28T18:10:56.419Z,0.40
2023-04-28T18:13:26.718Z,0.30
2023-04-28T18:15:55.339Z,0.40
2023-04-28T18:18:23.888Z,0.37
2023-04-28T18:20:58.667Z,0.27
2023-04-28T18:23:27.305Z,0.60
2023-04-28T18:25:55.982Z,0.47
2023-04-28T18:28:25.904Z,0.40
2023-04-28T18:30:53.292Z,0.43
2023-04-28T18:33:23.445Z,0.20
2023-04-28T18:36:00.073Z,0.50
2023-04-28T18:38:28.635Z,0.40
2023-04-28T18:40:57.164Z,0.40
2023-04-28T18:43:28.113Z,0.30
2023-04-28T18:45:56.702Z,0.50
2023-04-28T18:48:25.720Z,0.37
2023-04-28T18:50:54.626Z,0.40
2023-04-28T18:53:23.148Z,0.40
2023-04-28T18:55:51.704Z,0.30
2023-04-28T18:58:20.413Z,0.50
2023-04-28T19:00:50.511Z,0.33
2023-04-28T19:03:19.474Z,0.40
2023-04-28T19:05:48.674Z,0.40
2023-04-28T19:08:17.284Z,0.50
2023-04-28T19:10:45.823Z,0.30
2023-04-28T19:13:14.421Z,0.40
2023-04-28T19:15:42.943Z,0.40
2023-04-28T19:18:12.818Z,0.40
2023-04-28T19:20:42.956Z,0.40
2023-04-28T19:23:11.664Z,0.50
2023-04-28T19:25:40.229Z,0.43
2023-04-28T19:28:11.002Z,0.50
2023-04-28T19:30:39.666Z,0.33
2023-04-28T19:33:08.252Z,0.50
2023-04-28T19:35:38.789Z,0.50
2023-04-28T19:38:07.451Z,0.40
2023-04-28T19:40:35.905Z,0.30
2023-04-28T19:43:04.460Z,0.47
2023-04-28T19:45:34.828Z,0.53
2023-04-28T19:48:03.502Z,0.60
2023-04-28T19:50:32.351Z,0.47
2023-04-28T19:53:02.612Z,0.30
2023-04-28T19:55:31.960Z,0.60
2023-04-28T19:58:01.348Z,0.50
2023-04-28T20:00:32.326Z,0.60
2023-04-28T20:03:01.414Z,0.53
2023-04-28T20:05:30.746Z,0.50
2023-04-28T20:07:59.322Z,0.40
2023-04-28T20:10:29.371Z,0.40
2023-04-28T20:12:57.958Z,0.47
2023-04-28T20:15:26.497Z,0.50
2023-04-28T20:17:55.130Z,0.50
2023-04-28T20:20:23.842Z,0.50
2023-04-28T20:22:52.471Z,0.43
2023-04-28T20:25:21.013Z,0.57
2023-04-28T20:27:51.237Z,0.50
2023-04-28T20:30:19.767Z,0.70
2023-04-28T20:32:49.439Z,0.50
2023-04-28T20:35:18.104Z,0.50
2023-04-28T20:37:46.636Z,0.60
2023-04-28T20:40:15.317Z,0.50
2023-04-28T20:42:43.906Z,0.30
2023-04-28T20:45:13.997Z,0.40
2023-04-28T20:47:42.582Z,0.40
2023-04-28T20:50:12.217Z,0.37
2023-04-28T20:52:40.822Z,0.50
2023-04-28T20:55:10.243Z,0.50
2023-04-28T20:57:38.851Z,0.40
2023-04-28T21:00:08.157Z,0.60
2023-04-28T21:02:38.134Z,0.50
2023-04-28T21:05:07.010Z,0.57
2023-04-28T21:07:35.644Z,0.47
2023-04-28T21:10:04.123Z,0.50
2023-04-28T21:12:32.718Z,0.30
2023-04-28T21:15:01.250Z,0.30
2023-04-28T21:17:29.736Z,0.40
2023-04-28T21:19:59.660Z,0.40
2023-04-28T21:22:28.786Z,0.50
2023-04-28T21:24:57.460Z,0.30
2023-04-28T21:27:26.044Z,0.50
2023-04-28T21:29:54.564Z,0.67
2023-04-28T21:32:23.093Z,0.73
2023-04-28T21:34:51.642Z,0.50
2023-04-28T21:37:21.644Z,0.50
2023-04-28T21:39:50.584Z,0.50
2023-04-28T21:42:19.343Z,0.50
2023-04-28T21:44:48.013Z,0.50
2023-04-28T21:47:16.924Z,0.63
2023-04-28T21:49:45.467Z,0.40
2023-04-28T21:52:14.335Z,0.60
2023-04-28T21:54:44.188Z,0.50
2023-04-28T21:57:12.764Z,0.50
2023-04-28T21:59:41.319Z,0.63
2023-04-28T22:02:09.846Z,0.60
2023-04-28T22:04:38.816Z,0.50
2023-04-28T22:07:07.724Z,0.50
2023-04-28T22:09:36.228Z,0.50
2023-04-28T22:12:06.392Z,0.50
2023-04-28T22:14:40.958Z,0.50
2023-04-28T22:17:10.124Z,0.60
2023-04-28T22:19:38.647Z,0.50
2023-04-28T22:22:07.632Z,0.60
2023-04-28T22:24:36.456Z,0.50
2023-04-28T22:27:06.534Z,0.90
2023-04-28T22:29:35.670Z,0.57
2023-04-28T22:32:04.821Z,0.50
2023-04-28T22:34:33.330Z,0.50
2023-04-28T22:37:01.890Z,0.70
2023-04-28T22:39:30.711Z,0.67
2023-04-28T22:41:59.822Z,0.60
2023-04-28T22:44:29.855Z,0.57
2023-04-28T22:46:58.935Z,0.70
2023-04-28T22:49:28.762Z,0.60
2023-04-28T22:51:58.096Z,0.70
2023-04-28T22:54:26.686Z,0.50
2023-04-28T22:56:55.204Z,0.60
2023-04-28T22:59:23.847Z,0.40
2023-04-28T23:01:54.898Z,0.63
2023-04-28T23:04:23.716Z,0.50
2023-04-28T23:06:52.935Z,0.60
2023-04-28T23:09:21.565Z,0.70
2023-04-28T23:11:50.027Z,0.60
2023-04-28T23:14:18.620Z,0.60
2023-04-28T23:16:47.258Z,0.50
2023-04-28T23:19:19.301Z,0.70
2023-04-28T23:21:49.291Z,0.60
2023-04-28T23:24:17.730Z,0.70
2023-04-28T23:26:46.292Z,0.63
2023-04-28T23:29:14.971Z,0.80
2023-04-28T23:31:43.538Z,0.70
2023-04-28T23:34:12.037Z,0.90
2023-04-28T23:36:42.130Z,0.70
2023-04-28T23:39:10.800Z,0.60
2023-04-28T23:41:39.244Z,0.70
2023-04-28T23:44:07.941Z,0.73
2023-04-28T23:46:36.754Z,0.57
2023-04-28T23:49:06.436Z,0.60
2023-04-28T23:51:35.175Z,0.63
2023-04-28T23:54:05.096Z,1.00
2023-04-28T23:56:33.573Z,0.70
2023-04-28T23:59:02.628Z,0.63
